This is the latest recevied weather packets stored in our database for station/object N5KR. If no packets are shown the sender has not sent any weather packets the latest 10 day(s).
| Time | Temp. | Humidity | Pressure | Rain* | Wind** | Luminosity | Snow |
|---|---|---|---|---|---|---|---|
| 1777960506 | 22.78° C | 75% | 1006.1 hPa | 0 mm | - | 0 W/m² | - |
| 1777959607 | 22.78° C | 74% | 1006.3 hPa | 0 mm | - | 0 W/m² | - |
| 1777957806 | 22.78° C | 73% | 1006.6 hPa | 0 mm | - | 0 W/m² | - |
| 1777956907 | 23.33° C | 72% | 1006.5 hPa | 0 mm | - | 0 W/m² | - |
| 1777947606 | 23.89° C | 67% | 1006.7 hPa | 0 mm | - | 0 W/m² | - |
| 1777941905 | 25° C | 62% | 1006.5 hPa | 0 mm | - | 13 W/m² | - |
| 1777941006 | 25.56° C | 61% | 1006.6 hPa | 0 mm | - | 21 W/m² | - |
| 1777935905 | 26.67° C | 57% | 1007.1 hPa | 0 mm | - | 57 W/m² | - |
| 1777934405 | 27.22° C | 56% | 1007.3 hPa | 0 mm | - | 114 W/m² | - |
| 1777932605 | 27.22° C | 54% | 1007.4 hPa | 0 mm | - | 374 W/m² | - |
| 1777931106 | 27.78° C | 54% | 1007.8 hPa | 0 mm | - | 516 W/m² | - |
| 1777929305 | 27.22° C | 53% | 1008.3 hPa | 0 mm | - | 611 W/m² | - |
| 1777928406 | 27.22° C | 54% | 1008.6 hPa | 0 mm | - | 574 W/m² | - |
| 1777928106 | 27.22° C | 53% | 1008.6 hPa | 0 mm | - | 563 W/m² | - |
| 1777927805 | 27.22° C | 53% | 1008.7 hPa | 0 mm | - | 511 W/m² | - |
| 1777923905 | 27.78° C | 50% | 1010 hPa | 0 mm | - | 743 W/m² | - |
| 1777922405 | 27.22° C | 50% | 1010.5 hPa | 0 mm | - | 821 W/m² | - |
| 1777921506 | 27.22° C | 50% | 1010.6 hPa | 0 mm | - | 599 W/m² | - |
| 1777918505 | 26.67° C | 49% | 1011.3 hPa | 0 mm | - | 820 W/m² | - |
| 1777917905 | 26.67° C | 49% | 1011.1 hPa | 0 mm | - | 845 W/m² | - |
| 1777917305 | 26.11° C | 49% | 1011.2 hPa | 0 mm | - | 787 W/m² | - |
| 1777916705 | 26.11° C | 49% | 1011.6 hPa | 0 mm | - | 864 W/m² | - |
| 1777914905 | 25.56° C | 49% | 1012.3 hPa | 0 mm | - | 712 W/m² | - |
| 1777912205 | 24.44° C | 50% | 1012.9 hPa | 0 mm | - | 633 W/m² | - |
| 1777906804 | 22.22° C | 59% | 1013.6 hPa | 0 mm | - | 555 W/m² | - |
* Rain latest hour (hover to see other rain measurements)
** Current wind speed in m/s (hover to see current wind gust speed)